Weather History for Greenville, TX

Change the Weather History Date:

Monday, March 11, 2013

  Actual Average Record
Temperature  
Mean Temperature 44 °F -  
Max Temperature 55 °F 62 °F 80 °F (2006)
Min Temperature 33 °F 46 °F 33 °F (2011)
Degree Days  
Heating Degree Days 21    
Moisture  
Dew Point 27 °F    
Average Humidity 60    
Maximum Humidity 87    
Minimum Humidity 23    
Precipitation  
Precipitation 0.00 in - - ()
Sea Level Pressure  
Sea Level Pressure 30.06 in    
Wind  
Wind Speed 7 mph (WNW)    
Max Wind Speed 15 mph    
Max Gust Speed 20 mph    
Visibility 10 miles    
Events      
Averages and records for this station are not official NWS values.
T = Trace of Precipitation, MM = Missing Value Source: NWS Daily Summary

Daily Weather History Graph

Daily Weather History Graph

Search for Another Location

Airport:

Trip Planner

Search our weather history database for the weather conditions in past years. The results will help you decide how hot, cold, wet, or windy it might be!

Date:

Astronomy

Mar. 11, 2013 Rise Set
Actual Time 7:39 AM CDT 7:29 PM CDT
Civil Twilight 7:14 AM CDT 7:54 PM CDT
Nautical Twilight 6:46 AM CDT 8:22 PM CDT
Astronomical Twilight 6:17 AM CDT 8:51 PM CDT
Moon 7:15 AM CDT (3/11) 7:39 PM CDT (3/11)
Length of Visible Light 12h 39m
Length of Day
11h 49m
Waning Crescent, 0% of the Moon is Illuminated
Mar 11
Waning Crescent
Mar 11
New
Mar 19
First Quarter
Mar 27
Full
Apr 2
Last Quarter

Hourly Weather History & Observations

Time (CDT) Temp. Windchill Dew Point Humidity Pressure Visibility Wind Dir Wind Speed Gust Speed Precip Events Conditions
12:15 AM 41.0 °F 35.2 °F 32.0 °F 70% 30.05 in 10.0 mi NNW 9.2 mph - N/A   Clear
12:35 AM 39.2 °F 32.5 °F 32.0 °F 75% 30.05 in 10.0 mi North 10.4 mph - N/A   Clear
12:55 AM 39.2 °F 32.5 °F 30.2 °F 70% 30.06 in 10.0 mi NNW 10.4 mph - N/A   Clear
1:15 AM 39.2 °F 33.6 °F 30.2 °F 70% 30.07 in 10.0 mi NNW 8.1 mph - N/A   Clear
1:35 AM 37.4 °F 32.1 °F 30.2 °F 75% 30.07 in 10.0 mi North 6.9 mph - N/A   Clear
2:15 AM 35.6 °F 32.8 °F 30.2 °F 81% 30.08 in 10.0 mi North 3.5 mph - N/A   Clear
2:35 AM 35.6 °F - 30.2 °F 81% 30.09 in 10.0 mi Calm Calm - N/A   Clear
2:55 AM 35.6 °F - 30.2 °F 81% 30.09 in 10.0 mi Calm Calm - N/A   Clear
3:15 AM 35.6 °F - 30.2 °F 81% 30.09 in 10.0 mi Calm Calm - N/A   Clear
3:35 AM 35.6 °F - 28.4 °F 75% 30.08 in 10.0 mi Calm Calm - N/A   Clear
3:55 AM 35.6 °F 32.8 °F 28.4 °F 75% 30.08 in 10.0 mi WSW 3.5 mph - N/A   Clear
4:15 AM 35.6 °F 31.7 °F 30.2 °F 81% 30.08 in 10.0 mi WSW 4.6 mph - N/A   Clear
4:35 AM 35.6 °F 31.7 °F 30.2 °F 81% 30.07 in 10.0 mi WSW 4.6 mph - N/A   Clear
4:55 AM 33.8 °F 30.8 °F 30.2 °F 87% 30.07 in 10.0 mi West 3.5 mph - N/A   Clear
5:15 AM 35.6 °F 31.7 °F 30.2 °F 81% 30.07 in 10.0 mi WSW 4.6 mph - N/A   Clear
5:35 AM 33.8 °F 29.6 °F 30.2 °F 87% 30.06 in 10.0 mi WSW 4.6 mph - N/A   Clear
5:55 AM 35.6 °F 30.7 °F 30.2 °F 81% 30.06 in 10.0 mi WSW 5.8 mph - N/A   Clear
6:15 AM 35.6 °F 30.7 °F 30.2 °F 81% 30.07 in 10.0 mi West 5.8 mph - N/A   Clear
6:35 AM 33.8 °F 27.7 °F 30.2 °F 87% 30.07 in 10.0 mi West 6.9 mph - N/A   Clear
6:55 AM 33.8 °F 28.6 °F 30.2 °F 87% 30.07 in 10.0 mi West 5.8 mph - N/A   Clear
7:15 AM 33.8 °F 28.6 °F 30.2 °F 87% 30.07 in 10.0 mi West 5.8 mph - N/A   Clear
7:35 AM 33.8 °F 29.6 °F 30.2 °F 87% 30.07 in 10.0 mi West 4.6 mph - N/A   Clear
7:55 AM 33.8 °F 29.6 °F 30.2 °F 87% 30.08 in 10.0 mi West 4.6 mph - N/A   Clear
8:15 AM 33.8 °F 28.6 °F 30.2 °F 87% 30.08 in 10.0 mi West 5.8 mph - N/A   Clear
8:35 AM 35.6 °F 29.9 °F 30.2 °F 81% 30.09 in 10.0 mi West 6.9 mph - N/A   Clear
8:55 AM 37.4 °F 30.3 °F 32.0 °F 81% 30.09 in 10.0 mi West 10.4 mph - N/A   Clear
9:15 AM 37.4 °F 30.3 °F 30.2 °F 75% 30.09 in 10.0 mi WNW 10.4 mph - N/A   Clear
9:35 AM 39.2 °F 32.0 °F 30.2 °F 70% 30.09 in 10.0 mi WNW 11.5 mph - N/A   Clear
9:55 AM 41.0 °F 34.3 °F 30.2 °F 65% 30.10 in 10.0 mi WNW 11.5 mph - N/A   Clear
10:15 AM 41.0 °F 35.8 °F 28.4 °F 61% 30.10 in 10.0 mi WNW 8.1 mph 16.1 mph N/A   Clear
10:35 AM 42.8 °F 37.5 °F 30.2 °F 61% 30.10 in 10.0 mi NW 9.2 mph - N/A   Clear
10:55 AM 42.8 °F 37.0 °F 28.4 °F 57% 30.11 in 10.0 mi NW 10.4 mph - N/A   Clear
11:15 AM 44.6 °F 38.8 °F 28.4 °F 53% 30.11 in 10.0 mi NW 11.5 mph 19.6 mph N/A   Clear
11:35 AM 44.6 °F 38.4 °F 26.6 °F 49% 30.11 in 10.0 mi WNW 12.7 mph 16.1 mph N/A   Clear
11:55 AM 44.6 °F 39.2 °F 26.6 °F 49% 30.11 in 10.0 mi West 10.4 mph 18.4 mph N/A   Clear
12:15 PM 46.4 °F 40.7 °F 26.6 °F 46% 30.11 in 10.0 mi WNW 12.7 mph 19.6 mph N/A   Clear
12:35 PM 46.4 °F 41.1 °F 24.8 °F 43% 30.11 in 10.0 mi WNW 11.5 mph 17.3 mph N/A   Clear
12:55 PM 46.4 °F 41.1 °F 26.6 °F 46% 30.10 in 10.0 mi West 11.5 mph - N/A   Clear
1:15 PM 46.4 °F 40.4 °F 24.8 °F 43% 30.09 in 10.0 mi West 13.8 mph - N/A   Clear
1:35 PM 48.2 °F - 24.8 °F 40% 30.09 in 10.0 mi West 10.4 mph 19.6 mph N/A   Clear
1:55 PM 50.0 °F - 23.0 °F 35% 30.08 in 10.0 mi West 11.5 mph - N/A   Clear
2:15 PM 50.0 °F - 21.2 °F 32% 30.07 in 10.0 mi NW 15.0 mph 19.6 mph N/A   Clear
2:35 PM 51.8 °F - 21.2 °F 30% 30.06 in 10.0 mi WNW 9.2 mph 18.4 mph N/A   Clear
2:55 PM 51.8 °F - 21.2 °F 30% 30.05 in 10.0 mi WNW 10.4 mph 18.4 mph N/A   Clear
3:15 PM 51.8 °F - 21.2 °F 30% 30.04 in 10.0 mi WNW 5.8 mph 18.4 mph N/A   Clear
3:35 PM 53.6 °F - 21.2 °F 28% 30.04 in 10.0 mi WNW 9.2 mph 19.6 mph N/A   Clear
3:55 PM 53.6 °F - 21.2 °F 28% 30.04 in 10.0 mi West 10.4 mph - N/A   Clear
4:15 PM 53.6 °F - 21.2 °F 28% 30.03 in 10.0 mi WNW 10.4 mph 17.3 mph N/A   Clear
4:35 PM 53.6 °F - 21.2 °F 28% 30.03 in 10.0 mi WNW 13.8 mph 17.3 mph N/A   Clear
4:55 PM 53.6 °F - 19.4 °F 26% 30.02 in 10.0 mi WNW 15.0 mph 18.4 mph N/A   Clear
5:15 PM 55.4 °F - 19.4 °F 25% 30.01 in 10.0 mi WNW 11.5 mph - N/A   Clear
5:35 PM 55.4 °F - 19.4 °F 25% 30.01 in 10.0 mi NNW 10.4 mph 16.1 mph N/A   Clear
5:55 PM 55.4 °F - 19.4 °F 25% 30.01 in 10.0 mi NW 8.1 mph - N/A   Clear
6:15 PM 55.4 °F - 19.4 °F 25% 30.01 in 10.0 mi North 6.9 mph - N/A   Clear
6:35 PM 55.4 °F - 17.6 °F 23% 30.01 in 10.0 mi NW 6.9 mph - N/A   Clear
6:55 PM 53.6 °F - 19.4 °F 26% 30.02 in 10.0 mi NNW 4.6 mph - N/A   Clear
7:15 PM 53.6 °F - 19.4 °F 26% 30.02 in 10.0 mi North 4.6 mph - N/A   Clear
7:35 PM 51.8 °F - 21.2 °F 30% 30.02 in 10.0 mi Calm Calm - N/A   Clear
7:55 PM 46.4 °F - 24.8 °F 43% 30.02 in 10.0 mi Calm Calm - N/A   Clear
8:15 PM 42.8 °F - 30.2 °F 61% 30.02 in 10.0 mi Calm Calm - N/A   Clear
8:35 PM 44.6 °F - 26.6 °F 49% 30.03 in 10.0 mi Calm Calm - N/A   Clear
8:55 PM 42.8 °F - 32.0 °F 66% 30.03 in 10.0 mi Calm Calm - N/A   Clear
9:15 PM 41.0 °F - 32.0 °F 70% 30.04 in 10.0 mi Calm Calm - N/A   Clear
9:35 PM 41.0 °F - 32.0 °F 70% 30.04 in 10.0 mi Calm Calm - N/A   Clear
9:55 PM 41.0 °F - 32.0 °F 70% 30.05 in 10.0 mi Calm Calm - N/A   Clear
10:15 PM 37.4 °F - 30.2 °F 75% 30.06 in 10.0 mi Calm Calm - N/A   Clear
10:35 PM 37.4 °F - 32.0 °F 81% 30.06 in 10.0 mi Calm Calm - N/A   Clear
11:15 PM 35.6 °F - 30.2 °F 81% 30.07 in 10.0 mi Calm Calm - N/A   Clear
11:35 PM 35.6 °F - 30.2 °F 81% 30.07 in 10.0 mi Calm Calm - N/A   Clear
11:55 PM 35.6 °F - 28.4 °F 75% 30.07 in 10.0 mi Calm Calm - N/A   Clear